sensor_id;sensor_type;location;lat;lon;timestamp;P1;durP1;ratioP1;P2;durP2;ratioP2
18364;SDS011;9309;52.126;11.616;2023-05-23T00:12:16;5.47;;;4.17;;
18364;SDS011;9309;52.126;11.616;2023-05-23T00:14:43;5.27;;;4.63;;
18364;SDS011;9309;52.126;11.616;2023-05-23T00:17:10;4.77;;;4.37;;
18364;SDS011;9309;52.126;11.616;2023-05-23T00:19:36;6.27;;;4.63;;
18364;SDS011;9309;52.126;11.616;2023-05-23T00:22:03;4.50;;;4.10;;
18364;SDS011;9309;52.126;11.616;2023-05-23T00:24:30;4.67;;;3.90;;
18364;SDS011;9309;52.126;11.616;2023-05-23T00:26:58;4.80;;;4.37;;
18364;SDS011;9309;52.126;11.616;2023-05-23T00:29:25;5.80;;;4.80;;
18364;SDS011;9309;52.126;11.616;2023-05-23T00:31:51;5.10;;;4.43;;
18364;SDS011;9309;52.126;11.616;2023-05-23T00:34:18;5.67;;;3.83;;
18364;SDS011;9309;52.126;11.616;2023-05-23T00:36:45;7.57;;;5.20;;
18364;SDS011;9309;52.126;11.616;2023-05-23T00:39:14;5.77;;;4.77;;
18364;SDS011;9309;52.126;11.616;2023-05-23T00:41:43;7.33;;;4.80;;
18364;SDS011;9309;52.126;11.616;2023-05-23T00:44:12;6.77;;;4.80;;
18364;SDS011;9309;52.126;11.616;2023-05-23T00:46:39;5.50;;;5.00;;
18364;SDS011;9309;52.126;11.616;2023-05-23T00:49:07;5.00;;;4.53;;
18364;SDS011;9309;52.126;11.616;2023-05-23T00:51:34;6.40;;;5.33;;
18364;SDS011;9309;52.126;11.616;2023-05-23T00:54:01;8.70;;;4.90;;
18364;SDS011;9309;52.126;11.616;2023-05-23T00:56:30;10.80;;;5.10;;
18364;SDS011;9309;52.126;11.616;2023-05-23T00:58:57;6.17;;;4.73;;
18364;SDS011;9309;52.126;11.616;2023-05-23T01:01:26;4.23;;;3.93;;
18364;SDS011;9309;52.126;11.616;2023-05-23T01:03:54;4.50;;;4.17;;
18364;SDS011;9309;52.126;11.616;2023-05-23T01:06:22;7.47;;;4.57;;
18364;SDS011;9309;52.126;11.616;2023-05-23T01:08:49;5.67;;;4.37;;
18364;SDS011;9309;52.126;11.616;2023-05-23T01:11:17;5.60;;;4.33;;
18364;SDS011;9309;52.126;11.616;2023-05-23T01:13:54;7.23;;;4.40;;
18364;SDS011;9309;52.126;11.616;2023-05-23T01:16:31;5.00;;;4.50;;
18364;SDS011;9309;52.126;11.616;2023-05-23T01:19:16;5.37;;;4.80;;
18364;SDS011;9309;52.126;11.616;2023-05-23T01:22:00;7.53;;;5.10;;
18364;SDS011;9309;52.126;11.616;2023-05-23T01:24:37;6.27;;;4.83;;
18364;SDS011;9309;52.126;11.616;2023-05-23T01:27:14;7.00;;;4.80;;
18364;SDS011;9309;52.126;11.616;2023-05-23T01:29:58;6.73;;;5.03;;
18364;SDS011;9309;52.126;11.616;2023-05-23T01:32:28;5.90;;;5.00;;
18364;SDS011;9309;52.126;11.616;2023-05-23T01:34:57;7.00;;;5.05;;
18364;SDS011;9309;52.126;11.616;2023-05-23T01:37:26;14.80;;;6.23;;
18364;SDS011;9309;52.126;11.616;2023-05-23T01:39:53;5.37;;;4.90;;
18364;SDS011;9309;52.126;11.616;2023-05-23T01:42:20;6.03;;;5.43;;
18364;SDS011;9309;52.126;11.616;2023-05-23T01:44:47;6.57;;;4.90;;
18364;SDS011;9309;52.126;11.616;2023-05-23T01:47:17;5.70;;;5.00;;
18364;SDS011;9309;52.126;11.616;2023-05-23T01:49:44;5.60;;;5.10;;
18364;SDS011;9309;52.126;11.616;2023-05-23T01:52:14;7.00;;;5.60;;
18364;SDS011;9309;52.126;11.616;2023-05-23T01:54:41;5.80;;;5.13;;
18364;SDS011;9309;52.126;11.616;2023-05-23T01:59:36;5.10;;;4.20;;
18364;SDS011;9309;52.126;11.616;2023-05-23T02:02:03;5.57;;;5.07;;
18364;SDS011;9309;52.126;11.616;2023-05-23T02:04:31;5.00;;;4.50;;
18364;SDS011;9309;52.126;11.616;2023-05-23T02:06:58;8.30;;;5.60;;
18364;SDS011;9309;52.126;11.616;2023-05-23T02:09:25;5.23;;;4.63;;
18364;SDS011;9309;52.126;11.616;2023-05-23T02:11:52;5.37;;;4.77;;
18364;SDS011;9309;52.126;11.616;2023-05-23T02:14:20;6.70;;;4.87;;
18364;SDS011;9309;52.126;11.616;2023-05-23T02:16:48;5.73;;;5.20;;
18364;SDS011;9309;52.126;11.616;2023-05-23T02:19:16;5.47;;;4.97;;
18364;SDS011;9309;52.126;11.616;2023-05-23T02:21:46;5.57;;;5.10;;
18364;SDS011;9309;52.126;11.616;2023-05-23T02:24:13;5.70;;;5.20;;
18364;SDS011;9309;52.126;11.616;2023-05-23T02:26:39;6.87;;;5.80;;
18364;SDS011;9309;52.126;11.616;2023-05-23T02:29:06;10.30;;;5.63;;
18364;SDS011;9309;52.126;11.616;2023-05-23T02:31:33;6.80;;;5.40;;
18364;SDS011;9309;52.126;11.616;2023-05-23T02:34:00;7.43;;;5.63;;
18364;SDS011;9309;52.126;11.616;2023-05-23T02:36:26;6.47;;;5.70;;
18364;SDS011;9309;52.126;11.616;2023-05-23T02:38:55;7.17;;;5.13;;
18364;SDS011;9309;52.126;11.616;2023-05-23T02:41:22;7.83;;;5.43;;
18364;SDS011;9309;52.126;11.616;2023-05-23T02:43:50;7.30;;;5.63;;
18364;SDS011;9309;52.126;11.616;2023-05-23T02:46:17;7.30;;;5.90;;
18364;SDS011;9309;52.126;11.616;2023-05-23T02:48:43;7.27;;;4.90;;
18364;SDS011;9309;52.126;11.616;2023-05-23T02:51:10;7.67;;;5.80;;
18364;SDS011;9309;52.126;11.616;2023-05-23T02:53:38;6.07;;;5.57;;
18364;SDS011;9309;52.126;11.616;2023-05-23T02:56:06;7.47;;;5.97;;
18364;SDS011;9309;52.126;11.616;2023-05-23T02:58:34;10.90;;;6.35;;
18364;SDS011;9309;52.126;11.616;2023-05-23T03:01:01;12.40;;;6.60;;
18364;SDS011;9309;52.126;11.616;2023-05-23T03:03:28;8.30;;;6.45;;
18364;SDS011;9309;52.126;11.616;2023-05-23T03:05:55;9.10;;;6.10;;
18364;SDS011;9309;52.126;11.616;2023-05-23T03:08:22;11.87;;;6.67;;
18364;SDS011;9309;52.126;11.616;2023-05-23T03:10:49;8.13;;;6.63;;
18364;SDS011;9309;52.126;11.616;2023-05-23T03:13:18;7.33;;;6.37;;
18364;SDS011;9309;52.126;11.616;2023-05-23T03:15:45;7.17;;;5.70;;
18364;SDS011;9309;52.126;11.616;2023-05-23T03:18:12;9.90;;;6.20;;
18364;SDS011;9309;52.126;11.616;2023-05-23T03:20:39;10.03;;;6.27;;
18364;SDS011;9309;52.126;11.616;2023-05-23T03:23:06;8.40;;;6.37;;
18364;SDS011;9309;52.126;11.616;2023-05-23T03:25:33;9.17;;;5.87;;
18364;SDS011;9309;52.126;11.616;2023-05-23T03:27:59;11.10;;;7.03;;
18364;SDS011;9309;52.126;11.616;2023-05-23T03:30:28;7.37;;;6.17;;
18364;SDS011;9309;52.126;11.616;2023-05-23T03:32:55;8.47;;;7.13;;
18364;SDS011;9309;52.126;11.616;2023-05-23T03:35:21;8.23;;;6.60;;
18364;SDS011;9309;52.126;11.616;2023-05-23T03:37:48;8.97;;;6.87;;
18364;SDS011;9309;52.126;11.616;2023-05-23T03:40:15;11.20;;;6.87;;
18364;SDS011;9309;52.126;11.616;2023-05-23T03:42:42;10.60;;;6.80;;
18364;SDS011;9309;52.126;11.616;2023-05-23T03:45:09;9.70;;;6.57;;
18364;SDS011;9309;52.126;11.616;2023-05-23T03:47:37;10.70;;;6.67;;
18364;SDS011;9309;52.126;11.616;2023-05-23T03:50:05;10.57;;;6.03;;
18364;SDS011;9309;52.126;11.616;2023-05-23T03:52:33;11.10;;;6.27;;
18364;SDS011;9309;52.126;11.616;2023-05-23T03:55:00;8.17;;;6.53;;
18364;SDS011;9309;52.126;11.616;2023-05-23T03:57:27;13.50;;;6.87;;
18364;SDS011;9309;52.126;11.616;2023-05-23T03:59:54;10.20;;;7.57;;
18364;SDS011;9309;52.126;11.616;2023-05-23T04:02:21;10.67;;;7.17;;
18364;SDS011;9309;52.126;11.616;2023-05-23T04:04:49;10.30;;;6.80;;
18364;SDS011;9309;52.126;11.616;2023-05-23T04:07:18;12.97;;;7.40;;
18364;SDS011;9309;52.126;11.616;2023-05-23T04:09:45;8.40;;;6.77;;
18364;SDS011;9309;52.126;11.616;2023-05-23T04:12:12;10.73;;;6.20;;
18364;SDS011;9309;52.126;11.616;2023-05-23T04:14:39;12.60;;;6.97;;
18364;SDS011;9309;52.126;11.616;2023-05-23T04:17:06;8.30;;;7.17;;
18364;SDS011;9309;52.126;11.616;2023-05-23T04:19:34;8.10;;;6.70;;
18364;SDS011;9309;52.126;11.616;2023-05-23T04:22:02;10.90;;;6.93;;
18364;SDS011;9309;52.126;11.616;2023-05-23T04:24:29;10.47;;;6.47;;
18364;SDS011;9309;52.126;11.616;2023-05-23T04:26:55;12.10;;;7.87;;
18364;SDS011;9309;52.126;11.616;2023-05-23T04:29:24;13.50;;;7.90;;
18364;SDS011;9309;52.126;11.616;2023-05-23T04:31:53;14.73;;;8.20;;
18364;SDS011;9309;52.126;11.616;2023-05-23T04:34:20;17.83;;;9.03;;
18364;SDS011;9309;52.126;11.616;2023-05-23T04:36:47;15.60;;;8.13;;
18364;SDS011;9309;52.126;11.616;2023-05-23T04:39:16;14.93;;;8.77;;
18364;SDS011;9309;52.126;11.616;2023-05-23T04:42:15;13.43;;;7.83;;
18364;SDS011;9309;52.126;11.616;2023-05-23T04:44:52;16.33;;;9.17;;
18364;SDS011;9309;52.126;11.616;2023-05-23T04:47:34;11.97;;;7.83;;
18364;SDS011;9309;52.126;11.616;2023-05-23T04:50:04;14.50;;;8.47;;
18364;SDS011;9309;52.126;11.616;2023-05-23T04:52:32;16.17;;;9.03;;
18364;SDS011;9309;52.126;11.616;2023-05-23T04:55:00;15.57;;;8.83;;
18364;SDS011;9309;52.126;11.616;2023-05-23T04:57:27;16.63;;;9.13;;
18364;SDS011;9309;52.126;11.616;2023-05-23T04:59:54;13.97;;;8.73;;
18364;SDS011;9309;52.126;11.616;2023-05-23T05:02:21;15.77;;;8.57;;
18364;SDS011;9309;52.126;11.616;2023-05-23T05:04:48;15.50;;;8.47;;
18364;SDS011;9309;52.126;11.616;2023-05-23T05:07:15;15.57;;;8.97;;
18364;SDS011;9309;52.126;11.616;2023-05-23T05:09:44;15.43;;;8.80;;
18364;SDS011;9309;52.126;11.616;2023-05-23T05:12:12;16.80;;;9.37;;
18364;SDS011;9309;52.126;11.616;2023-05-23T05:14:39;15.50;;;8.90;;
18364;SDS011;9309;52.126;11.616;2023-05-23T05:17:06;21.27;;;10.93;;
18364;SDS011;9309;52.126;11.616;2023-05-23T05:19:41;16.67;;;9.10;;
18364;SDS011;9309;52.126;11.616;2023-05-23T05:22:08;20.17;;;10.87;;
18364;SDS011;9309;52.126;11.616;2023-05-23T05:24:34;24.50;;;11.43;;
18364;SDS011;9309;52.126;11.616;2023-05-23T05:41:59;18.20;;;9.30;;
18364;SDS011;9309;52.126;11.616;2023-05-23T05:44:28;16.67;;;8.47;;
18364;SDS011;9309;52.126;11.616;2023-05-23T05:46:55;18.10;;;9.20;;
18364;SDS011;9309;52.126;11.616;2023-05-23T05:49:21;13.33;;;7.27;;
18364;SDS011;9309;52.126;11.616;2023-05-23T05:51:48;15.13;;;7.90;;
18364;SDS011;9309;52.126;11.616;2023-05-23T05:54:15;11.07;;;6.63;;
18364;SDS011;9309;52.126;11.616;2023-05-23T06:13:52;11.40;;;6.07;;
18364;SDS011;9309;52.126;11.616;2023-05-23T06:16:20;8.93;;;5.53;;
18364;SDS011;9309;52.126;11.616;2023-05-23T06:18:46;12.57;;;6.53;;
18364;SDS011;9309;52.126;11.616;2023-05-23T06:21:13;9.67;;;6.77;;
18364;SDS011;9309;52.126;11.616;2023-05-23T06:23:40;16.97;;;7.03;;
18364;SDS011;9309;52.126;11.616;2023-05-23T06:26:07;12.20;;;6.47;;
18364;SDS011;9309;52.126;11.616;2023-05-23T06:28:35;12.13;;;6.63;;
18364;SDS011;9309;52.126;11.616;2023-05-23T06:31:04;14.67;;;6.37;;
18364;SDS011;9309;52.126;11.616;2023-05-23T06:33:38;7.73;;;6.20;;
18364;SDS011;9309;52.126;11.616;2023-05-23T06:36:04;12.33;;;5.70;;
18364;SDS011;9309;52.126;11.616;2023-05-23T06:38:31;12.67;;;7.20;;
18364;SDS011;9309;52.126;11.616;2023-05-23T06:40:58;8.90;;;6.20;;
18364;SDS011;9309;52.126;11.616;2023-05-23T06:43:27;8.87;;;5.83;;
18364;SDS011;9309;52.126;11.616;2023-05-23T06:46:10;6.87;;;5.23;;
18364;SDS011;9309;52.126;11.616;2023-05-23T06:48:38;9.37;;;5.17;;
18364;SDS011;9309;52.126;11.616;2023-05-23T06:51:05;6.40;;;4.93;;
18364;SDS011;9309;52.126;11.616;2023-05-23T06:53:32;8.53;;;4.97;;
18364;SDS011;9309;52.126;11.616;2023-05-23T06:55:59;5.50;;;4.37;;
18364;SDS011;9309;52.126;11.616;2023-05-23T06:58:26;9.00;;;5.30;;
18364;SDS011;9309;52.126;11.616;2023-05-23T07:00:55;8.67;;;5.17;;
18364;SDS011;9309;52.126;11.616;2023-05-23T07:03:29;7.67;;;4.67;;
18364;SDS011;9309;52.126;11.616;2023-05-23T07:06:02;7.27;;;4.97;;
18364;SDS011;9309;52.126;11.616;2023-05-23T07:08:29;6.63;;;5.03;;
18364;SDS011;9309;52.126;11.616;2023-05-23T07:10:58;6.87;;;4.43;;
18364;SDS011;9309;52.126;11.616;2023-05-23T07:13:29;5.13;;;4.63;;
18364;SDS011;9309;52.126;11.616;2023-05-23T07:15:57;7.83;;;4.67;;
18364;SDS011;9309;52.126;11.616;2023-05-23T07:18:24;6.60;;;4.67;;
18364;SDS011;9309;52.126;11.616;2023-05-23T07:20:52;7.80;;;4.53;;
18364;SDS011;9309;52.126;11.616;2023-05-23T07:23:21;8.23;;;4.60;;
18364;SDS011;9309;52.126;11.616;2023-05-23T07:25:49;8.33;;;4.80;;
18364;SDS011;9309;52.126;11.616;2023-05-23T07:28:24;7.57;;;4.93;;
18364;SDS011;9309;52.126;11.616;2023-05-23T07:30:53;4.60;;;4.20;;
18364;SDS011;9309;52.126;11.616;2023-05-23T07:33:22;6.83;;;5.20;;
18364;SDS011;9309;52.126;11.616;2023-05-23T07:35:49;7.80;;;4.63;;
18364;SDS011;9309;52.126;11.616;2023-05-23T07:38:17;8.30;;;4.93;;
18364;SDS011;9309;52.126;11.616;2023-05-23T07:40:45;7.17;;;5.00;;
18364;SDS011;9309;52.126;11.616;2023-05-23T07:43:11;6.93;;;4.30;;
18364;SDS011;9309;52.126;11.616;2023-05-23T07:45:38;9.87;;;4.70;;
18364;SDS011;9309;52.126;11.616;2023-05-23T07:48:07;6.33;;;4.53;;
18364;SDS011;9309;52.126;11.616;2023-05-23T07:50:34;8.67;;;5.27;;
18364;SDS011;9309;52.126;11.616;2023-05-23T07:53:01;9.50;;;4.80;;
18364;SDS011;9309;52.126;11.616;2023-05-23T07:55:29;10.03;;;4.57;;
18364;SDS011;9309;52.126;11.616;2023-05-23T07:57:58;6.30;;;4.47;;
18364;SDS011;9309;52.126;11.616;2023-05-23T08:00:26;6.03;;;4.20;;
18364;SDS011;9309;52.126;11.616;2023-05-23T08:02:59;5.93;;;4.57;;
18364;SDS011;9309;52.126;11.616;2023-05-23T08:05:33;4.10;;;3.70;;
18364;SDS011;9309;52.126;11.616;2023-05-23T08:08:00;9.17;;;4.90;;
18364;SDS011;9309;52.126;11.616;2023-05-23T08:10:27;4.37;;;3.80;;
18364;SDS011;9309;52.126;11.616;2023-05-23T08:13:02;3.90;;;3.60;;
18364;SDS011;9309;52.126;11.616;2023-05-23T08:15:35;5.13;;;3.87;;
18364;SDS011;9309;52.126;11.616;2023-05-23T08:18:08;5.40;;;3.63;;
18364;SDS011;9309;52.126;11.616;2023-05-23T08:20:35;3.93;;;2.90;;
18364;SDS011;9309;52.126;11.616;2023-05-23T08:23:02;4.87;;;3.37;;
18364;SDS011;9309;52.126;11.616;2023-05-23T08:25:29;2.73;;;2.57;;
18364;SDS011;9309;52.126;11.616;2023-05-23T08:27:57;3.97;;;3.13;;
18364;SDS011;9309;52.126;11.616;2023-05-23T08:30:38;3.63;;;3.10;;
18364;SDS011;9309;52.126;11.616;2023-05-23T08:33:06;3.53;;;3.30;;
18364;SDS011;9309;52.126;11.616;2023-05-23T08:35:35;3.40;;;3.10;;
18364;SDS011;9309;52.126;11.616;2023-05-23T08:38:05;4.70;;;4.17;;
18364;SDS011;9309;52.126;11.616;2023-05-23T08:40:35;3.83;;;3.30;;
18364;SDS011;9309;52.126;11.616;2023-05-23T08:43:08;3.60;;;3.20;;
18364;SDS011;9309;52.126;11.616;2023-05-23T08:45:36;7.00;;;3.23;;
18364;SDS011;9309;52.126;11.616;2023-05-23T08:48:05;6.07;;;3.33;;
18364;SDS011;9309;52.126;11.616;2023-05-23T08:50:40;3.60;;;3.30;;
18364;SDS011;9309;52.126;11.616;2023-05-23T08:53:10;3.97;;;3.20;;
18364;SDS011;9309;52.126;11.616;2023-05-23T08:55:45;4.20;;;2.80;;
18364;SDS011;9309;52.126;11.616;2023-05-23T08:58:13;3.23;;;2.93;;
18364;SDS011;9309;52.126;11.616;2023-05-23T09:00:46;3.30;;;3.10;;
18364;SDS011;9309;52.126;11.616;2023-05-23T09:03:15;6.67;;;3.43;;
18364;SDS011;9309;52.126;11.616;2023-05-23T09:05:54;2.47;;;2.27;;
18364;SDS011;9309;52.126;11.616;2023-05-23T09:08:22;3.47;;;2.87;;
18364;SDS011;9309;52.126;11.616;2023-05-23T09:10:54;6.90;;;3.13;;
18364;SDS011;9309;52.126;11.616;2023-05-23T09:13:21;3.57;;;3.20;;
18364;SDS011;9309;52.126;11.616;2023-05-23T09:16:00;3.57;;;3.07;;
18364;SDS011;9309;52.126;11.616;2023-05-23T09:18:36;5.17;;;2.47;;
18364;SDS011;9309;52.126;11.616;2023-05-23T09:21:11;4.70;;;2.93;;
18364;SDS011;9309;52.126;11.616;2023-05-23T09:23:51;2.90;;;2.70;;
18364;SDS011;9309;52.126;11.616;2023-05-23T09:26:26;3.93;;;2.93;;
18364;SDS011;9309;52.126;11.616;2023-05-23T09:28:56;4.20;;;2.87;;
18364;SDS011;9309;52.126;11.616;2023-05-23T09:31:25;3.07;;;2.87;;
18364;SDS011;9309;52.126;11.616;2023-05-23T09:33:56;3.10;;;2.83;;
18364;SDS011;9309;52.126;11.616;2023-05-23T09:36:26;2.37;;;2.20;;
18364;SDS011;9309;52.126;11.616;2023-05-23T09:38:54;2.53;;;2.33;;
18364;SDS011;9309;52.126;11.616;2023-05-23T09:41:21;2.93;;;2.73;;
18364;SDS011;9309;52.126;11.616;2023-05-23T09:43:50;3.00;;;2.80;;
18364;SDS011;9309;52.126;11.616;2023-05-23T09:46:18;2.90;;;2.73;;
18364;SDS011;9309;52.126;11.616;2023-05-23T09:48:45;6.43;;;2.80;;
18364;SDS011;9309;52.126;11.616;2023-05-23T09:51:14;3.77;;;2.97;;
18364;SDS011;9309;52.126;11.616;2023-05-23T09:53:45;3.60;;;3.30;;
18364;SDS011;9309;52.126;11.616;2023-05-23T09:56:12;5.63;;;3.60;;
18364;SDS011;9309;52.126;11.616;2023-05-23T09:58:43;5.67;;;4.17;;
18364;SDS011;9309;52.126;11.616;2023-05-23T10:01:12;3.63;;;3.40;;
18364;SDS011;9309;52.126;11.616;2023-05-23T10:03:43;4.47;;;3.60;;
18364;SDS011;9309;52.126;11.616;2023-05-23T10:06:16;3.50;;;3.20;;
18364;SDS011;9309;52.126;11.616;2023-05-23T10:08:49;3.37;;;3.07;;
18364;SDS011;9309;52.126;11.616;2023-05-23T10:14:21;4.43;;;4.03;;
18364;SDS011;9309;52.126;11.616;2023-05-23T10:16:56;4.10;;;3.70;;
18364;SDS011;9309;52.126;11.616;2023-05-23T10:19:30;3.97;;;3.37;;
18364;SDS011;9309;52.126;11.616;2023-05-23T10:22:06;3.37;;;3.17;;
18364;SDS011;9309;52.126;11.616;2023-05-23T10:24:35;3.37;;;3.17;;
18364;SDS011;9309;52.126;11.616;2023-05-23T10:27:03;3.23;;;3.10;;
18364;SDS011;9309;52.126;11.616;2023-05-23T10:29:30;3.37;;;3.07;;
18364;SDS011;9309;52.126;11.616;2023-05-23T10:31:59;2.90;;;2.70;;
18364;SDS011;9309;52.126;11.616;2023-05-23T10:34:28;4.37;;;3.00;;
18364;SDS011;9309;52.126;11.616;2023-05-23T10:37:03;3.60;;;3.30;;
18364;SDS011;9309;52.126;11.616;2023-05-23T10:39:39;4.20;;;2.67;;
18364;SDS011;9309;52.126;11.616;2023-05-23T10:42:16;3.13;;;2.90;;
18364;SDS011;9309;52.126;11.616;2023-05-23T10:44:45;3.67;;;3.00;;
18364;SDS011;9309;52.126;11.616;2023-05-23T10:47:12;3.70;;;3.40;;
18364;SDS011;9309;52.126;11.616;2023-05-23T10:49:51;2.87;;;2.77;;
18364;SDS011;9309;52.126;11.616;2023-05-23T10:52:22;3.30;;;3.10;;
18364;SDS011;9309;52.126;11.616;2023-05-23T10:54:51;3.17;;;2.87;;
18364;SDS011;9309;52.126;11.616;2023-05-23T10:57:20;3.90;;;3.60;;
18364;SDS011;9309;52.126;11.616;2023-05-23T10:59:50;2.77;;;2.67;;
18364;SDS011;9309;52.126;11.616;2023-05-23T11:02:18;3.87;;;3.43;;
18364;SDS011;9309;52.126;11.616;2023-05-23T11:04:55;3.70;;;3.50;;
18364;SDS011;9309;52.126;11.616;2023-05-23T11:07:47;3.20;;;3.00;;
18364;SDS011;9309;52.126;11.616;2023-05-23T11:10:34;3.13;;;2.93;;
18364;SDS011;9309;52.126;11.616;2023-05-23T11:13:18;2.97;;;2.87;;
18364;SDS011;9309;52.126;11.616;2023-05-23T11:15:46;3.80;;;3.23;;
18364;SDS011;9309;52.126;11.616;2023-05-23T11:18:20;3.47;;;3.27;;
18364;SDS011;9309;52.126;11.616;2023-05-23T11:20:50;3.77;;;3.53;;
18364;SDS011;9309;52.126;11.616;2023-05-23T11:23:20;4.20;;;3.80;;
18364;SDS011;9309;52.126;11.616;2023-05-23T11:25:48;4.00;;;3.80;;
18364;SDS011;9309;52.126;11.616;2023-05-23T11:28:16;4.93;;;4.43;;
18364;SDS011;9309;52.126;11.616;2023-05-23T11:30:45;4.53;;;4.23;;
18364;SDS011;9309;52.126;11.616;2023-05-23T11:33:14;7.63;;;5.40;;
18364;SDS011;9309;52.126;11.616;2023-05-23T11:35:43;5.50;;;4.93;;
18364;SDS011;9309;52.126;11.616;2023-05-23T11:38:10;5.50;;;4.93;;
18364;SDS011;9309;52.126;11.616;2023-05-23T11:40:40;6.23;;;4.97;;
18364;SDS011;9309;52.126;11.616;2023-05-23T11:43:10;4.33;;;4.03;;
18364;SDS011;9309;52.126;11.616;2023-05-23T11:45:39;5.07;;;4.47;;
18364;SDS011;9309;52.126;11.616;2023-05-23T11:48:07;8.33;;;4.50;;
18364;SDS011;9309;52.126;11.616;2023-05-23T11:50:36;5.07;;;4.30;;
18364;SDS011;9309;52.126;11.616;2023-05-23T11:53:09;4.03;;;3.73;;
18364;SDS011;9309;52.126;11.616;2023-05-23T11:55:39;5.47;;;4.40;;
18364;SDS011;9309;52.126;11.616;2023-05-23T11:58:13;4.20;;;3.90;;
18364;SDS011;9309;52.126;11.616;2023-05-23T12:00:43;4.83;;;3.77;;
18364;SDS011;9309;52.126;11.616;2023-05-23T12:03:10;3.97;;;3.67;;
18364;SDS011;9309;52.126;11.616;2023-05-23T12:05:37;3.73;;;3.47;;
18364;SDS011;9309;52.126;11.616;2023-05-23T12:08:04;3.90;;;3.60;;
18364;SDS011;9309;52.126;11.616;2023-05-23T12:10:31;3.57;;;3.27;;
18364;SDS011;9309;52.126;11.616;2023-05-23T12:12:59;4.23;;;3.30;;
18364;SDS011;9309;52.126;11.616;2023-05-23T12:15:26;3.03;;;2.83;;
18364;SDS011;9309;52.126;11.616;2023-05-23T12:17:57;3.70;;;3.40;;
18364;SDS011;9309;52.126;11.616;2023-05-23T12:20:24;3.27;;;2.70;;
18364;SDS011;9309;52.126;11.616;2023-05-23T12:22:52;2.57;;;2.47;;
18364;SDS011;9309;52.126;11.616;2023-05-23T12:25:20;2.83;;;2.37;;
18364;SDS011;9309;52.126;11.616;2023-05-23T12:27:56;3.20;;;2.80;;
18364;SDS011;9309;52.126;11.616;2023-05-23T12:30:42;3.13;;;2.93;;
18364;SDS011;9309;52.126;11.616;2023-05-23T12:33:09;3.10;;;2.50;;
18364;SDS011;9309;52.126;11.616;2023-05-23T12:35:36;3.53;;;3.33;;
18364;SDS011;9309;52.126;11.616;2023-05-23T12:38:04;2.83;;;2.67;;
18364;SDS011;9309;52.126;11.616;2023-05-23T12:40:31;3.40;;;3.27;;
18364;SDS011;9309;52.126;11.616;2023-05-23T12:42:58;2.97;;;2.83;;
18364;SDS011;9309;52.126;11.616;2023-05-23T12:45:29;3.97;;;3.60;;
18364;SDS011;9309;52.126;11.616;2023-05-23T12:47:59;2.27;;;2.17;;
18364;SDS011;9309;52.126;11.616;2023-05-23T12:50:26;2.20;;;2.10;;
18364;SDS011;9309;52.126;11.616;2023-05-23T12:52:52;1.63;;;1.60;;
18364;SDS011;9309;52.126;11.616;2023-05-23T12:55:20;1.90;;;1.80;;
18364;SDS011;9309;52.126;11.616;2023-05-23T12:57:46;1.90;;;1.90;;
18364;SDS011;9309;52.126;11.616;2023-05-23T13:00:13;1.87;;;1.83;;
18364;SDS011;9309;52.126;11.616;2023-05-23T13:02:40;1.90;;;1.90;;
18364;SDS011;9309;52.126;11.616;2023-05-23T13:05:08;1.43;;;1.43;;
18364;SDS011;9309;52.126;11.616;2023-05-23T13:07:35;1.80;;;1.80;;
18364;SDS011;9309;52.126;11.616;2023-05-23T13:10:03;2.03;;;1.83;;
18364;SDS011;9309;52.126;11.616;2023-05-23T13:12:30;1.70;;;1.70;;
18364;SDS011;9309;52.126;11.616;2023-05-23T13:14:58;1.57;;;1.57;;
18364;SDS011;9309;52.126;11.616;2023-05-23T13:17:25;1.77;;;1.70;;
18364;SDS011;9309;52.126;11.616;2023-05-23T13:19:51;1.60;;;1.60;;
18364;SDS011;9309;52.126;11.616;2023-05-23T13:22:20;2.73;;;2.50;;
18364;SDS011;9309;52.126;11.616;2023-05-23T13:24:47;2.33;;;2.17;;
18364;SDS011;9309;52.126;11.616;2023-05-23T13:27:14;2.20;;;2.10;;
18364;SDS011;9309;52.126;11.616;2023-05-23T13:29:40;3.07;;;2.20;;
18364;SDS011;9309;52.126;11.616;2023-05-23T13:32:07;2.23;;;2.07;;
18364;SDS011;9309;52.126;11.616;2023-05-23T13:34:34;1.90;;;1.87;;
18364;SDS011;9309;52.126;11.616;2023-05-23T13:37:01;2.33;;;2.20;;
18364;SDS011;9309;52.126;11.616;2023-05-23T13:39:30;2.33;;;2.23;;
18364;SDS011;9309;52.126;11.616;2023-05-23T13:41:57;2.33;;;2.23;;
18364;SDS011;9309;52.126;11.616;2023-05-23T13:44:23;2.43;;;2.33;;
18364;SDS011;9309;52.126;11.616;2023-05-23T13:46:50;6.33;;;2.37;;
18364;SDS011;9309;52.126;11.616;2023-05-23T13:49:17;3.43;;;3.23;;
18364;SDS011;9309;52.126;11.616;2023-05-23T13:51:43;3.57;;;3.30;;
18364;SDS011;9309;52.126;11.616;2023-05-23T13:54:10;3.03;;;2.77;;
18364;SDS011;9309;52.126;11.616;2023-05-23T13:56:39;3.80;;;3.17;;
18364;SDS011;9309;52.126;11.616;2023-05-23T13:59:05;3.83;;;3.33;;
18364;SDS011;9309;52.126;11.616;2023-05-23T14:01:32;3.60;;;3.30;;
18364;SDS011;9309;52.126;11.616;2023-05-23T14:03:59;4.30;;;3.40;;
18364;SDS011;9309;52.126;11.616;2023-05-23T14:06:26;5.37;;;4.00;;
18364;SDS011;9309;52.126;11.616;2023-05-23T14:08:52;6.13;;;4.27;;
18364;SDS011;9309;52.126;11.616;2023-05-23T14:11:20;4.33;;;3.40;;
18364;SDS011;9309;52.126;11.616;2023-05-23T14:13:48;7.17;;;3.77;;
18364;SDS011;9309;52.126;11.616;2023-05-23T14:16:15;8.17;;;3.37;;
18364;SDS011;9309;52.126;11.616;2023-05-23T14:18:42;5.50;;;3.70;;
18364;SDS011;9309;52.126;11.616;2023-05-23T14:21:09;4.27;;;3.67;;
18364;SDS011;9309;52.126;11.616;2023-05-23T14:23:36;4.10;;;3.67;;
18364;SDS011;9309;52.126;11.616;2023-05-23T14:26:02;6.93;;;3.60;;
18364;SDS011;9309;52.126;11.616;2023-05-23T14:28:30;3.40;;;3.20;;
18364;SDS011;9309;52.126;11.616;2023-05-23T14:30:58;7.07;;;4.10;;
18364;SDS011;9309;52.126;11.616;2023-05-23T14:33:25;4.77;;;3.83;;
18364;SDS011;9309;52.126;11.616;2023-05-23T14:35:52;4.87;;;3.53;;
18364;SDS011;9309;52.126;11.616;2023-05-23T14:38:18;5.47;;;3.87;;
18364;SDS011;9309;52.126;11.616;2023-05-23T14:40:45;3.67;;;3.37;;
18364;SDS011;9309;52.126;11.616;2023-05-23T14:43:12;7.43;;;3.70;;
18364;SDS011;9309;52.126;11.616;2023-05-23T14:45:39;5.63;;;3.90;;
18364;SDS011;9309;52.126;11.616;2023-05-23T14:48:08;5.30;;;4.27;;
18364;SDS011;9309;52.126;11.616;2023-05-23T14:50:35;3.83;;;3.53;;
18364;SDS011;9309;52.126;11.616;2023-05-23T14:53:02;4.23;;;3.67;;
18364;SDS011;9309;52.126;11.616;2023-05-23T14:55:29;4.93;;;3.73;;
18364;SDS011;9309;52.126;11.616;2023-05-23T14:57:56;5.77;;;3.97;;
18364;SDS011;9309;52.126;11.616;2023-05-23T15:00:22;5.23;;;3.37;;
18364;SDS011;9309;52.126;11.616;2023-05-23T15:02:49;4.50;;;3.00;;
18364;SDS011;9309;52.126;11.616;2023-05-23T15:05:17;4.30;;;3.67;;
18364;SDS011;9309;52.126;11.616;2023-05-23T15:07:44;5.77;;;4.00;;
18364;SDS011;9309;52.126;11.616;2023-05-23T15:10:11;6.27;;;4.13;;
18364;SDS011;9309;52.126;11.616;2023-05-23T15:12:38;14.00;;;3.90;;
18364;SDS011;9309;52.126;11.616;2023-05-23T15:15:05;5.87;;;3.27;;
18364;SDS011;9309;52.126;11.616;2023-05-23T15:17:33;4.53;;;3.23;;
18364;SDS011;9309;52.126;11.616;2023-05-23T15:19:59;3.60;;;3.30;;
18364;SDS011;9309;52.126;11.616;2023-05-23T15:22:28;10.70;;;3.97;;
18364;SDS011;9309;52.126;11.616;2023-05-23T15:24:57;8.77;;;3.83;;
18364;SDS011;9309;52.126;11.616;2023-05-23T15:27:24;3.70;;;3.00;;
18364;SDS011;9309;52.126;11.616;2023-05-23T15:29:51;6.60;;;3.03;;
18364;SDS011;9309;52.126;11.616;2023-05-23T15:32:17;10.23;;;3.80;;
18364;SDS011;9309;52.126;11.616;2023-05-23T15:34:44;10.07;;;3.20;;
18364;SDS011;9309;52.126;11.616;2023-05-23T15:37:11;7.33;;;3.80;;
18364;SDS011;9309;52.126;11.616;2023-05-23T15:39:39;5.40;;;3.00;;
18364;SDS011;9309;52.126;11.616;2023-05-23T15:42:06;7.13;;;3.53;;
18364;SDS011;9309;52.126;11.616;2023-05-23T15:44:33;3.07;;;2.93;;